Time;durP1;ratioP1;P1;durP2;ratioP2;P2;SDS_P1;SDS_P2;PMS_P1;PMS_P2;Temp;Humidity;BMP_temperature;BMP_pressure;BME280_temperature;BME280_humidity;BME280_pressure;Samples;Min_cycle;Max_cycle;Signal;HPM_P1;HPM_P2
2022/10/13 00:00:29;;;;;;;13.25;6.53;;;10.80;99.90;;;;;;5037965;28;20285;-73
2022/10/13 00:02:58;;;;;;;16.33;8.33;;;10.70;99.90;;;;;;5041153;28;20056;-73
2022/10/13 00:05:24;;;;;;;17.25;7.13;;;10.70;99.90;;;;;;5023369;28;20286;-73
2022/10/13 00:07:49;;;;;;;13.40;7.60;;;10.70;99.90;;;;;;5028076;28;20039;-73
2022/10/13 00:10:15;;;;;;;15.70;7.63;;;10.70;99.90;;;;;;5043541;28;20032;-74
2022/10/13 00:12:41;;;;;;;13.73;7.05;;;10.80;99.90;;;;;;5037901;28;20392;-73
2022/10/13 00:15:08;;;;;;;16.13;6.97;;;10.80;99.90;;;;;;5036814;28;20486;-73
2022/10/13 00:17:35;;;;;;;15.90;7.40;;;10.80;99.90;;;;;;5043746;28;20350;-73
2022/10/13 00:20:04;;;;;;;14.57;6.82;;;10.70;99.90;;;;;;5047654;28;20044;-73
2022/10/13 00:22:31;;;;;;;18.70;7.13;;;10.70;99.90;;;;;;5030765;28;20037;-73
2022/10/13 00:24:59;;;;;;;21.13;7.75;;;10.70;99.90;;;;;;5048349;28;20037;-73
2022/10/13 00:27:25;;;;;;;16.17;7.25;;;10.70;99.90;;;;;;5043398;28;20559;-72
2022/10/13 00:29:52;;;;;;;16.40;7.65;;;10.70;99.90;;;;;;5042991;28;20036;-73
2022/10/13 00:32:18;;;;;;;15.70;6.82;;;10.70;99.90;;;;;;5041148;28;20080;-73
2022/10/13 00:34:44;;;;;;;11.37;6.93;;;10.70;99.90;;;;;;5038902;28;20533;-73
2022/10/13 00:37:13;;;;;;;17.97;7.50;;;10.70;99.90;;;;;;5042622;28;20052;-73
2022/10/13 00:39:38;;;;;;;18.15;8.02;;;10.70;99.90;;;;;;5039779;28;20324;-73
2022/10/13 00:42:05;;;;;;;18.70;7.63;;;10.70;99.90;;;;;;5035809;28;20155;-73
2022/10/13 00:45:03;;;;;;;14.43;7.82;;;10.70;99.90;;;;;;5040688;28;20340;-73
2022/10/13 00:47:52;;;;;;;17.07;8.27;;;10.70;99.90;;;;;;5020486;28;20170;-73
2022/10/13 00:50:22;;;;;;;21.95;7.50;;;10.70;99.90;;;;;;5037300;28;20148;-73
2022/10/13 00:52:50;;;;;;;16.10;7.40;;;10.70;99.90;;;;;;5039949;28;20075;-73
2022/10/13 00:55:19;;;;;;;16.33;7.57;;;10.70;99.90;;;;;;5037443;28;20043;-73
2022/10/13 00:57:46;;;;;;;15.90;7.13;;;10.70;99.90;;;;;;5040158;28;20473;-73
2022/10/13 01:00:15;;;;;;;15.50;7.93;;;10.70;99.90;;;;;;5037245;28;20040;-73
2022/10/13 01:02:41;;;;;;;17.52;7.25;;;10.70;99.90;;;;;;5039364;28;20399;-73
2022/10/13 01:05:07;;;;;;;14.77;7.97;;;10.70;99.90;;;;;;5037325;28;20102;-73
2022/10/13 01:07:34;;;;;;;15.50;6.78;;;10.70;99.90;;;;;;5042189;28;20121;-73
2022/10/13 01:10:01;;;;;;;15.23;8.00;;;10.70;99.90;;;;;;5040292;28;20064;-72
2022/10/13 01:12:56;;;;;;;15.90;7.88;;;10.70;99.90;;;;;;5046197;28;20071;-73
2022/10/13 01:15:47;;;;;;;15.88;7.88;;;10.70;99.90;;;;;;5038464;28;20045;-73
2022/10/13 01:18:19;;;;;;;18.38;7.80;;;10.80;99.90;;;;;;5041729;28;20048;-73
2022/10/13 01:21:30;;;;;;;18.65;6.88;;;10.70;99.90;;;;;;5038990;28;20109;-73
2022/10/13 01:24:50;;;;;;;19.40;7.72;;;10.70;99.90;;;;;;4956820;28;20057;-73
2022/10/13 01:27:26;;;;;;;12.10;7.03;;;10.70;99.90;;;;;;4925368;29;20409;-73
2022/10/13 01:30:10;;;;;;;18.42;7.93;;;10.70;99.90;;;;;;5026650;28;20047;-73
2022/10/13 01:33:12;;;;;;;14.57;7.68;;;10.70;99.90;;;;;;5038623;28;20049;-73
2022/10/13 01:35:46;;;;;;;15.27;8.10;;;10.70;99.90;;;;;;5041764;28;20095;-73
2022/10/13 01:38:28;;;;;;;20.70;7.88;;;10.70;99.90;;;;;;5034319;28;20095;-73
2022/10/13 01:41:13;;;;;;;18.25;8.02;;;10.70;99.90;;;;;;5042766;28;20080;-73
2022/10/13 01:43:45;;;;;;;14.45;7.25;;;10.80;99.90;;;;;;5034749;28;20523;-73
2022/10/13 01:46:30;;;;;;;17.10;7.53;;;10.70;99.90;;;;;;5040467;28;20052;-73
2022/10/13 01:49:00;;;;;;;15.70;7.68;;;10.80;99.90;;;;;;5039607;28;20033;-73
2022/10/13 01:51:28;;;;;;;14.90;7.93;;;10.80;99.90;;;;;;5023747;28;20112;-74
2022/10/13 01:53:53;;;;;;;17.20;6.90;;;10.80;99.90;;;;;;5038180;28;20043;-73
2022/10/13 01:56:19;;;;;;;14.00;7.43;;;10.80;99.90;;;;;;5026180;28;20033;-72
2022/10/13 01:58:47;;;;;;;19.55;7.45;;;10.80;99.90;;;;;;5034522;28;20040;-74
2022/10/13 02:01:15;;;;;;;17.55;7.40;;;10.80;99.90;;;;;;5040913;28;20550;-74
2022/10/13 02:03:47;;;;;;;14.70;7.60;;;10.80;99.90;;;;;;5037768;28;20118;-74
2022/10/13 02:06:23;;;;;;;15.85;8.43;;;10.80;99.90;;;;;;5033881;28;20096;-74
2022/10/13 02:09:22;;;;;;;14.45;7.35;;;10.80;99.90;;;;;;5040296;28;20029;-74
2022/10/13 02:12:12;;;;;;;17.52;8.40;;;10.80;99.90;;;;;;5036740;28;20033;-73
2022/10/13 02:14:41;;;;;;;13.63;7.40;;;10.80;99.90;;;;;;5038226;28;20049;-73
2022/10/13 02:17:06;;;;;;;14.45;7.60;;;10.80;99.90;;;;;;5034409;28;20064;-72
2022/10/13 02:19:35;;;;;;;22.65;7.28;;;10.80;99.90;;;;;;5027509;28;20444;-73
2022/10/13 02:22:01;;;;;;;16.52;7.15;;;10.80;99.90;;;;;;5041398;28;20045;-73
2022/10/13 02:24:32;;;;;;;15.77;7.00;;;10.80;99.90;;;;;;5037108;28;20526;-74
2022/10/13 02:26:58;;;;;;;11.27;6.82;;;10.70;99.90;;;;;;5025651;28;20067;-73
2022/10/13 02:29:24;;;;;;;21.77;7.40;;;10.80;99.90;;;;;;5035841;28;20499;-73
2022/10/13 02:31:52;;;;;;;19.08;7.30;;;10.80;99.90;;;;;;5039905;28;20045;-73
2022/10/13 02:34:18;;;;;;;18.10;6.90;;;10.80;99.90;;;;;;5040827;28;20067;-73
2022/10/13 02:36:43;;;;;;;18.53;7.27;;;10.80;99.90;;;;;;5037708;28;20239;-73
2022/10/13 02:39:10;;;;;;;22.03;7.33;;;10.80;99.90;;;;;;5040319;28;20037;-74
2022/10/13 02:41:36;;;;;;;17.02;6.90;;;10.80;99.90;;;;;;5032914;28;20475;-74
2022/10/13 02:44:02;;;;;;;16.08;7.30;;;10.80;99.90;;;;;;5037480;28;20045;-73
2022/10/13 02:46:28;;;;;;;15.07;6.80;;;10.80;99.90;;;;;;5037571;28;20091;-72
2022/10/13 02:48:54;;;;;;;18.97;7.13;;;10.80;99.90;;;;;;5043016;28;20041;-73
2022/10/13 02:51:19;;;;;;;18.87;7.10;;;10.80;99.90;;;;;;5041755;28;20037;-73
2022/10/13 02:53:45;;;;;;;17.53;6.50;;;10.80;99.90;;;;;;5041694;28;20274;-72
2022/10/13 02:56:11;;;;;;;15.63;6.87;;;10.80;99.90;;;;;;5041402;28;20045;-72
2022/10/13 02:58:36;;;;;;;11.97;6.40;;;10.80;99.90;;;;;;5045719;28;20262;-73
2022/10/13 03:01:11;;;;;;;16.53;7.37;;;10.80;99.90;;;;;;5040309;28;20043;-72
2022/10/13 03:03:37;;;;;;;14.60;7.75;;;10.90;99.90;;;;;;5040269;28;20119;-73
2022/10/13 03:06:03;;;;;;;13.38;6.85;;;10.90;99.90;;;;;;5021044;28;20140;-72
2022/10/13 03:08:31;;;;;;;12.65;6.65;;;10.90;99.90;;;;;;5043788;28;20128;-73
2022/10/13 03:10:57;;;;;;;10.52;7.28;;;10.90;99.90;;;;;;5038623;28;20047;-72
2022/10/13 03:13:22;;;;;;;13.57;7.13;;;10.90;99.90;;;;;;5039259;28;20515;-72
2022/10/13 03:15:48;;;;;;;15.27;7.80;;;10.90;99.90;;;;;;5025825;28;20060;-72
2022/10/13 03:18:14;;;;;;;16.08;7.72;;;11.00;99.90;;;;;;5042431;28;20478;-72
2022/10/13 03:20:40;;;;;;;16.63;7.47;;;10.90;99.90;;;;;;5042488;28;20048;-72
2022/10/13 03:23:06;;;;;;;16.50;7.65;;;10.90;99.90;;;;;;5038037;28;20104;-73
2022/10/13 03:25:32;;;;;;;14.47;7.87;;;11.00;99.90;;;;;;5038817;28;20051;-73
2022/10/13 03:27:58;;;;;;;16.83;8.48;;;11.00;99.90;;;;;;5045240;28;20266;-73
2022/10/13 03:30:25;;;;;;;17.80;7.80;;;10.90;99.90;;;;;;5045668;28;20148;-73
2022/10/13 03:32:50;;;;;;;23.77;9.68;;;11.00;99.90;;;;;;5044285;28;20033;-73
2022/10/13 03:35:16;;;;;;;18.07;6.73;;;11.00;99.90;;;;;;5044667;28;20421;-73
2022/10/13 03:37:42;;;;;;;15.63;7.80;;;11.00;99.90;;;;;;5043077;28;20045;-73
2022/10/13 03:40:09;;;;;;;15.77;8.13;;;11.00;99.90;;;;;;5044188;28;20608;-72
2022/10/13 03:42:35;;;;;;;17.45;9.10;;;11.00;99.90;;;;;;5037392;28;20052;-73
2022/10/13 03:45:02;;;;;;;20.40;8.65;;;11.00;99.90;;;;;;5037987;28;20067;-73
2022/10/13 03:47:28;;;;;;;19.02;8.93;;;10.90;99.90;;;;;;5040968;28;20071;-72
2022/10/13 03:49:54;;;;;;;18.03;9.57;;;10.90;99.90;;;;;;5038599;28;20112;-73
2022/10/13 03:52:21;;;;;;;19.95;8.10;;;10.90;99.90;;;;;;5044032;28;20040;-73
2022/10/13 03:54:47;;;;;;;20.33;8.77;;;10.90;99.90;;;;;;5041987;28;20402;-73
2022/10/13 03:57:13;;;;;;;14.95;7.82;;;10.90;99.90;;;;;;5033302;28;20141;-73
2022/10/13 03:59:39;;;;;;;14.10;8.60;;;10.90;99.90;;;;;;5041243;28;20505;-73
2022/10/13 04:02:06;;;;;;;18.15;8.45;;;10.90;99.90;;;;;;5041370;28;20132;-73
2022/10/13 04:04:31;;;;;;;16.00;8.63;;;11.00;99.90;;;;;;5025653;28;20044;-73
2022/10/13 04:06:57;;;;;;;16.55;8.20;;;10.90;99.90;;;;;;5041919;28;20041;-73
2022/10/13 04:09:23;;;;;;;20.30;8.70;;;10.90;99.90;;;;;;5038869;28;20040;-72
2022/10/13 04:11:52;;;;;;;15.82;7.68;;;10.90;99.90;;;;;;5043269;28;20335;-72
2022/10/13 04:14:19;;;;;;;16.38;8.45;;;10.90;99.90;;;;;;5049897;28;20548;-73
2022/10/13 04:16:45;;;;;;;16.95;8.60;;;10.90;99.90;;;;;;5037268;28;20555;-73
2022/10/13 04:19:12;;;;;;;;;;;10.80;99.90;;;;;;5043718;28;20041;-73
2022/10/13 04:21:38;;;;;;;16.35;8.38;;;10.90;99.90;;;;;;5042135;28;19916;-72
2022/10/13 04:24:04;;;;;;;17.50;8.52;;;10.80;99.90;;;;;;5019806;28;20028;-73
2022/10/13 04:26:33;;;;;;;15.77;8.23;;;10.80;99.90;;;;;;5035885;28;20133;-73
2022/10/13 04:29:03;;;;;;;18.88;8.88;;;10.80;99.90;;;;;;5040946;28;20040;-72
2022/10/13 04:31:29;;;;;;;15.95;9.43;;;10.90;99.90;;;;;;5036611;28;20521;-73
2022/10/13 04:33:55;;;;;;;;;;;10.80;99.90;;;;;;5037110;28;20136;-75
2022/10/13 04:36:22;;;;;;;18.77;8.07;;;10.80;99.90;;;;;;5046811;28;20007;-81
2022/10/13 04:38:48;;;;;;;18.17;8.63;;;10.80;99.90;;;;;;5049056;28;20123;-75
2022/10/13 04:41:16;;;;;;;18.42;9.55;;;10.80;99.90;;;;;;5040379;28;20044;-74
2022/10/13 04:43:42;;;;;;;18.42;8.68;;;10.80;99.90;;;;;;5035897;28;20057;-75
2022/10/13 04:46:12;;;;;;;20.65;8.93;;;10.80;99.90;;;;;;5042796;28;20071;-75
2022/10/13 04:48:38;;;;;;;20.75;9.95;;;10.80;99.90;;;;;;5041202;28;20522;-77
2022/10/13 04:51:07;;;;;;;19.98;9.57;;;10.80;99.90;;;;;;5042516;28;20087;-75
2022/10/13 04:53:34;;;;;;;19.25;8.93;;;10.80;99.90;;;;;;5036566;28;20462;-74
2022/10/13 04:56:01;;;;;;;16.75;9.88;;;10.80;99.90;;;;;;5037626;28;20069;-75
2022/10/13 04:58:27;;;;;;;20.95;9.70;;;10.80;99.90;;;;;;5040224;28;22057;-77
2022/10/13 05:00:52;;;;;;;17.70;9.60;;;10.80;99.90;;;;;;5033882;28;20040;-76
2022/10/13 05:03:18;;;;;;;21.87;8.90;;;10.80;99.90;;;;;;5022897;28;20041;-72
2022/10/13 05:05:44;;;;;;;22.80;9.52;;;10.80;99.90;;;;;;5041919;28;20064;-73
2022/10/13 05:08:10;;;;;;;19.70;9.63;;;10.80;99.90;;;;;;5041341;28;20487;-72
2022/10/13 05:10:35;;;;;;;20.07;9.30;;;10.80;99.90;;;;;;5044389;28;20176;-73
2022/10/13 05:13:01;;;;;;;19.15;8.50;;;10.70;99.90;;;;;;5040878;28;20128;-74
2022/10/13 05:15:27;;;;;;;18.90;9.00;;;10.80;99.90;;;;;;5040724;28;20060;-78
2022/10/13 05:17:52;;;;;;;22.77;9.30;;;10.80;99.90;;;;;;5038948;28;20499;-74
2022/10/13 05:20:18;;;;;;;19.70;9.37;;;10.80;99.90;;;;;;5042629;28;20044;-76
2022/10/13 05:22:44;;;;;;;16.60;8.53;;;10.80;99.90;;;;;;5039129;28;20152;-73
2022/10/13 05:25:09;;;;;;;16.97;8.70;;;10.80;99.90;;;;;;5043469;28;20068;-78
2022/10/13 05:27:35;;;;;;;18.67;10.43;;;10.90;99.90;;;;;;5048450;28;20036;-78
2022/10/13 05:30:01;;;;;;;20.03;9.87;;;10.80;99.90;;;;;;5047929;28;20410;-79
2022/10/13 05:32:27;;;;;;;19.88;9.82;;;10.90;99.90;;;;;;5039312;28;20418;-73
2022/10/13 05:34:53;;;;;;;18.10;9.47;;;10.80;99.90;;;;;;5037107;28;20055;-73
2022/10/13 05:37:21;;;;;;;23.27;9.83;;;10.80;99.90;;;;;;5048568;28;20076;-73
2022/10/13 05:39:47;;;;;;;16.38;10.00;;;10.80;99.90;;;;;;5045082;28;20041;-72
2022/10/13 05:42:13;;;;;;;17.52;9.85;;;10.80;99.90;;;;;;5039349;28;20048;-72
2022/10/13 05:44:39;;;;;;;21.75;10.70;;;10.90;99.90;;;;;;5037071;28;20536;-73
2022/10/13 05:47:04;;;;;;;20.58;9.80;;;10.90;99.90;;;;;;5037371;28;20274;-73
2022/10/13 05:49:30;;;;;;;23.85;10.25;;;10.90;99.90;;;;;;5039425;28;20495;-72
2022/10/13 05:52:02;;;;;;;23.50;9.83;;;10.90;99.90;;;;;;5039078;28;20045;-74
2022/10/13 05:54:34;;;;;;;15.65;9.55;;;10.90;99.90;;;;;;5027366;28;20124;-73
2022/10/13 05:57:09;;;;;;;20.55;10.30;;;10.90;99.90;;;;;;5034874;28;20051;-73
2022/10/13 05:59:40;;;;;;;19.02;10.50;;;10.80;99.90;;;;;;5025576;28;20058;-73
2022/10/13 06:02:08;;;;;;;19.30;10.15;;;10.90;99.90;;;;;;5040372;28;20045;-73
2022/10/13 06:04:39;;;;;;;19.02;10.07;;;10.90;99.90;;;;;;5040694;28;20283;-73
2022/10/13 06:07:05;;;;;;;21.88;10.75;;;10.90;99.90;;;;;;5048335;28;20049;-73
2022/10/13 06:09:36;;;;;;;21.20;10.57;;;11.00;99.90;;;;;;5049230;28;20068;-73
2022/10/13 06:12:03;;;;;;;21.02;11.00;;;11.00;99.90;;;;;;5046452;28;20049;-73
2022/10/13 06:14:29;;;;;;;;;;;11.00;99.90;;;;;;5047575;28;20068;-73
2022/10/13 06:16:55;;;;;;;18.38;9.48;;;11.00;99.90;;;;;;5044862;28;19917;-73
2022/10/13 06:19:20;;;;;;;20.13;10.57;;;11.00;99.90;;;;;;5043695;28;20033;-73
2022/10/13 06:21:46;;;;;;;22.87;10.70;;;11.00;99.90;;;;;;5044728;28;20082;-73
2022/10/13 06:24:12;;;;;;;17.93;10.30;;;11.00;99.90;;;;;;5044600;28;20128;-72
2022/10/13 06:26:37;;;;;;;22.57;11.03;;;11.00;99.90;;;;;;5045411;28;20091;-73
2022/10/13 06:29:03;;;;;;;19.20;9.53;;;11.00;99.90;;;;;;5044594;28;20373;-73
2022/10/13 06:31:29;;;;;;;22.50;9.97;;;11.00;99.90;;;;;;5024948;28;20045;-72
2022/10/13 06:33:54;;;;;;;21.17;10.83;;;11.00;99.90;;;;;;5044309;28;20055;-72
2022/10/13 06:36:20;;;;;;;23.07;11.37;;;11.10;99.90;;;;;;5049103;28;20647;-72
2022/10/13 06:38:46;;;;;;;19.33;11.43;;;11.10;99.90;;;;;;5051505;28;20071;-73
2022/10/13 06:41:13;;;;;;;23.48;11.38;;;11.10;99.90;;;;;;5049462;28;20053;-72
2022/10/13 06:43:39;;;;;;;18.50;9.90;;;11.10;99.90;;;;;;5047383;28;20261;-73
2022/10/13 06:46:04;;;;;;;18.35;9.73;;;11.10;99.90;;;;;;5047349;28;20494;-71
2022/10/13 06:48:30;;;;;;;17.77;10.70;;;11.20;99.90;;;;;;5048664;28;20047;-72
2022/10/13 06:51:03;;;;;;;20.02;10.20;;;11.20;99.90;;;;;;5050173;28;20037;-72
2022/10/13 06:53:29;;;;;;;23.33;10.60;;;11.20;99.90;;;;;;5046995;28;20053;-71
2022/10/13 06:55:56;;;;;;;20.80;10.70;;;11.20;99.90;;;;;;5046405;28;20379;-72
2022/10/13 06:58:22;;;;;;;22.25;10.63;;;11.30;99.90;;;;;;5028058;28;20048;-72
2022/10/13 07:00:47;;;;;;;23.23;10.43;;;11.30;99.90;;;;;;5048635;28;20048;-72
2022/10/13 07:03:13;;;;;;;21.07;11.43;;;11.30;99.90;;;;;;5047909;28;20047;-72
2022/10/13 07:05:39;;;;;;;24.97;11.17;;;11.40;99.90;;;;;;5049928;28;20087;-72
2022/10/13 07:08:04;;;;;;;22.53;12.90;;;11.40;99.90;;;;;;5046480;28;20419;-71
2022/10/13 07:10:30;;;;;;;18.77;10.93;;;11.40;99.90;;;;;;5051826;28;20041;-71
2022/10/13 07:12:56;;;;;;;24.03;11.00;;;11.40;99.90;;;;;;5036248;28;20419;-71
2022/10/13 07:15:23;;;;;;;26.50;11.23;;;11.50;99.90;;;;;;5054235;28;20128;-71
2022/10/13 07:17:53;;;;;;;22.63;11.40;;;11.50;99.90;;;;;;5043369;28;20288;-71
2022/10/13 07:20:20;;;;;;;23.73;11.38;;;11.50;99.90;;;;;;5045206;28;20088;-71
2022/10/13 07:22:46;;;;;;;19.08;10.85;;;11.50;99.90;;;;;;5043516;28;20083;-71
2022/10/13 07:25:12;;;;;;;20.27;10.27;;;11.60;99.90;;;;;;5047536;28;20051;-71
2022/10/13 07:27:39;;;;;;;22.00;10.93;;;11.60;99.90;;;;;;5042205;28;20427;-71
2022/10/13 07:30:06;;;;;;;22.95;11.05;;;11.60;99.90;;;;;;5046588;28;20286;-71
2022/10/13 07:32:32;;;;;;;20.60;12.07;;;11.70;99.90;;;;;;5045367;28;20044;-71
2022/10/13 07:34:57;;;;;;;18.53;9.73;;;11.70;99.90;;;;;;5048475;28;20044;-71
2022/10/13 07:37:23;;;;;;;20.10;11.33;;;11.80;99.90;;;;;;5038606;28;20938;-71
2022/10/13 07:39:50;;;;;;;21.13;11.50;;;11.80;99.90;;;;;;5048004;28;20045;-71
2022/10/13 07:42:16;;;;;;;27.10;10.95;;;11.90;99.90;;;;;;5052721;28;20482;-71
2022/10/13 07:44:42;;;;;;;22.50;10.57;;;11.90;99.90;;;;;;5042179;28;20306;-71
2022/10/13 07:47:08;;;;;;;21.38;11.27;;;12.00;99.90;;;;;;5045475;28;20621;-73
2022/10/13 07:49:33;;;;;;;21.17;9.60;;;12.00;99.90;;;;;;5044232;28;20503;-72
2022/10/13 07:51:59;;;;;;;18.70;10.03;;;12.00;99.90;;;;;;5044826;28;20052;-72
2022/10/13 07:54:25;;;;;;;20.10;11.10;;;12.00;99.90;;;;;;5043766;28;20040;-72
2022/10/13 07:56:51;;;;;;;19.42;11.32;;;12.10;99.90;;;;;;5044378;28;20066;-72
2022/10/13 07:59:17;;;;;;;;;;;12.10;99.90;;;;;;5052128;28;20045;-73
2022/10/13 08:01:43;;;;;;;23.35;11.32;;;12.10;99.90;;;;;;5045489;28;19924;-73
2022/10/13 08:04:08;;;;;;;22.27;11.23;;;12.10;99.90;;;;;;5045259;28;20365;-72
2022/10/13 08:06:34;;;;;;;27.70;11.37;;;12.20;99.90;;;;;;5047560;28;20391;-72
2022/10/13 08:09:00;;;;;;;21.45;10.73;;;12.20;99.90;;;;;;5042779;28;20291;-73
2022/10/13 08:11:26;;;;;;;24.58;12.15;;;12.20;99.90;;;;;;5042381;28;20052;-72
2022/10/13 08:13:54;;;;;;;26.38;12.18;;;12.30;99.90;;;;;;5047010;28;20048;-72
2022/10/13 08:16:21;;;;;;;22.48;11.27;;;12.20;99.90;;;;;;5039297;28;20091;-72
2022/10/13 08:18:47;;;;;;;21.13;11.63;;;12.30;99.90;;;;;;5045151;28;20200;-72
2022/10/13 08:21:18;;;;;;;22.30;11.90;;;12.30;99.90;;;;;;5047327;28;20037;-73
2022/10/13 08:23:44;;;;;;;20.38;10.93;;;12.40;99.90;;;;;;5044840;28;20060;-72
2022/10/13 08:26:23;;;;;;;19.65;11.68;;;12.40;99.90;;;;;;5047465;28;20033;-73
2022/10/13 08:28:49;;;;;;;25.55;12.20;;;12.40;99.90;;;;;;5051552;28;20512;-73
2022/10/13 08:31:15;;;;;;;22.65;12.10;;;12.40;99.90;;;;;;5061583;22;20024;-74
2022/10/13 08:33:41;;;;;;;24.40;11.60;;;12.40;99.90;;;;;;5068948;28;20434;-74
2022/10/13 08:36:07;;;;;;;23.40;11.70;;;12.50;99.90;;;;;;5068394;28;20052;-73
2022/10/13 08:38:34;;;;;;;;;;;12.50;99.90;;;;;;5068884;28;20045;-73
2022/10/13 08:41:00;;;;;;;23.08;11.82;;;12.50;99.90;;;;;;5066527;28;19923;-74
2022/10/13 08:43:26;;;;;;;;;;;12.50;99.90;;;;;;5066990;28;20099;-74
2022/10/13 08:46:00;;;;;;;24.27;11.05;;;12.60;99.90;;;;;;5071787;28;20104;-74
2022/10/13 08:48:35;;;;;;;19.63;11.20;;;12.60;99.90;;;;;;5086671;28;20092;-74
2022/10/13 08:51:04;;;;;;;21.15;11.32;;;12.60;99.90;;;;;;5088475;28;20076;-73
2022/10/13 08:53:43;;;;;;;23.63;12.18;;;12.60;99.90;;;;;;5088369;28;20062;-74
2022/10/13 08:56:29;;;;;;;25.40;12.55;;;12.60;99.90;;;;;;5069946;28;20449;-74
2022/10/13 08:58:55;;;;;;;23.73;11.73;;;12.70;99.90;;;;;;5088012;28;20066;-74
2022/10/13 09:01:29;;;;;;;25.45;11.48;;;12.70;99.90;;;;;;5070382;28;20098;-74
2022/10/13 09:04:24;;;;;;;27.50;12.65;;;12.80;99.90;;;;;;5073951;28;20496;-74
2022/10/13 09:06:57;;;;;;;24.23;11.55;;;12.80;99.90;;;;;;5053494;28;20051;-74
2022/10/13 09:09:23;;;;;;;23.23;11.55;;;12.80;99.90;;;;;;5066409;28;20060;-73
2022/10/13 09:11:50;;;;;;;24.38;11.23;;;12.90;99.90;;;;;;5068048;28;20105;-74
2022/10/13 09:14:22;;;;;;;22.80;12.00;;;12.90;99.90;;;;;;5066219;28;20131;-74
2022/10/13 09:16:49;;;;;;;25.67;12.73;;;12.90;99.90;;;;;;5066384;28;20038;-74
2022/10/13 09:19:24;;;;;;;25.25;11.73;;;12.90;99.90;;;;;;5066745;28;20072;-74
2022/10/13 09:21:52;;;;;;;23.48;12.27;;;13.00;99.90;;;;;;5068199;28;20096;-74
2022/10/13 09:24:20;;;;;;;22.77;12.63;;;13.00;99.90;;;;;;5066466;28;20052;-74
2022/10/13 09:26:48;;;;;;;22.65;11.65;;;13.10;99.90;;;;;;5078404;28;20047;-74
2022/10/13 09:29:20;;;;;;;22.48;11.60;;;13.10;99.90;;;;;;5073311;28;20048;-71
2022/10/13 09:31:46;;;;;;;22.65;12.05;;;13.10;99.90;;;;;;5065086;28;20052;-74
2022/10/13 09:34:23;;;;;;;20.58;11.40;;;13.20;99.90;;;;;;5065262;28;20101;-73
2022/10/13 09:36:58;;;;;;;20.00;12.05;;;13.20;99.90;;;;;;5067922;28;20439;-74
2022/10/13 09:39:24;;;;;;;24.70;11.27;;;13.20;99.90;;;;;;5085557;28;20047;-74
2022/10/13 09:41:50;;;;;;;21.98;11.90;;;13.20;99.90;;;;;;5083971;28;20078;-74
2022/10/13 09:44:25;;;;;;;28.23;13.38;;;13.30;99.90;;;;;;5078720;28;20279;-74
2022/10/13 09:46:54;;;;;;;25.00;13.63;;;13.30;99.90;;;;;;5056515;28;20117;-73
2022/10/13 09:49:20;;;;;;;22.95;12.20;;;13.30;99.90;;;;;;5064684;28;20047;-74
2022/10/13 09:51:47;;;;;;;27.57;14.07;;;13.40;99.90;;;;;;5066417;28;20040;-73
2022/10/13 09:54:25;;;;;;;24.83;13.40;;;13.40;99.90;;;;;;5064735;28;20409;-73
2022/10/13 09:57:00;;;;;;;25.13;11.98;;;13.40;99.90;;;;;;5048261;28;20044;-74
2022/10/13 09:59:39;;;;;;;18.75;11.30;;;13.50;99.90;;;;;;5064943;28;20060;-74
2022/10/13 10:02:35;;;;;;;21.23;11.20;;;13.50;99.90;;;;;;5064670;28;20580;-74
2022/10/13 10:05:21;;;;;;;18.35;10.63;;;13.50;99.90;;;;;;5066764;28;20057;-74
2022/10/13 10:07:47;;;;;;;18.65;10.13;;;13.60;99.90;;;;;;5065142;28;20387;-74
2022/10/13 10:10:34;;;;;;;24.88;10.40;;;13.60;99.90;;;;;;5063980;28;20045;-74
2022/10/13 10:13:01;;;;;;;18.40;10.20;;;13.60;99.90;;;;;;5047626;28;20128;-74
2022/10/13 10:15:38;;;;;;;20.90;10.63;;;13.70;99.90;;;;;;5065872;28;20067;-74
2022/10/13 10:18:30;;;;;;;21.13;9.95;;;13.70;99.90;;;;;;5066302;28;20256;-74
2022/10/13 10:21:10;;;;;;;21.02;10.52;;;13.70;99.90;;;;;;5047528;28;20048;-74
2022/10/13 10:23:46;;;;;;;19.40;10.30;;;13.70;99.90;;;;;;5064824;28;20116;-73
2022/10/13 10:26:17;;;;;;;19.02;10.75;;;13.70;99.90;;;;;;5066877;28;20041;-73
2022/10/13 10:28:48;;;;;;;19.23;10.00;;;13.70;99.90;;;;;;5066189;28;20397;-73
2022/10/13 10:31:20;;;;;;;17.38;10.10;;;13.70;99.90;;;;;;5066092;28;20037;-73
2022/10/13 10:33:58;;;;;;;22.95;9.68;;;13.80;99.90;;;;;;5064875;28;20044;-73
2022/10/13 10:36:36;;;;;;;18.65;9.80;;;13.80;99.90;;;;;;5064746;28;20445;-73
2022/10/13 10:39:20;;;;;;;17.95;9.73;;;13.80;99.90;;;;;;5064622;28;20044;-72
2022/10/13 10:42:06;;;;;;;19.77;9.45;;;13.90;99.90;;;;;;5064278;28;20465;-73
2022/10/13 10:44:41;;;;;;;18.83;9.95;;;13.90;99.90;;;;;;5064412;28;20073;-72
2022/10/13 10:47:18;;;;;;;21.52;9.55;;;13.80;99.90;;;;;;5065302;28;20255;-73
2022/10/13 10:49:44;;;;;;;16.92;9.18;;;13.90;99.90;;;;;;5064493;28;20426;-72
2022/10/13 10:52:22;;;;;;;22.08;9.10;;;13.90;99.90;;;;;;5064358;28;20079;-72
2022/10/13 10:54:56;;;;;;;17.65;9.20;;;14.00;99.90;;;;;;5068013;28;20048;-73
2022/10/13 10:57:50;;;;;;;16.42;9.60;;;13.90;99.90;;;;;;5068547;28;20044;-73
2022/10/13 11:00:21;;;;;;;16.48;9.52;;;14.00;99.90;;;;;;5067764;28;20056;-73
2022/10/13 11:02:52;;;;;;;16.98;9.70;;;14.00;99.90;;;;;;5068001;28;20059;-73
2022/10/13 11:05:18;;;;;;;16.45;9.68;;;14.10;99.90;;;;;;5074603;28;20044;-73
2022/10/13 11:07:50;;;;;;;16.98;9.10;;;14.10;99.90;;;;;;5068839;28;20534;-73
2022/10/13 11:10:20;;;;;;;18.08;9.00;;;14.20;99.90;;;;;;5050755;28;20036;-73
2022/10/13 11:12:52;;;;;;;18.33;9.35;;;14.10;99.90;;;;;;5080060;28;20063;-73
2022/10/13 11:15:39;;;;;;;16.92;9.07;;;14.20;99.90;;;;;;5089235;28;20075;-73
2022/10/13 11:18:43;;;;;;;15.98;9.30;;;14.20;99.90;;;;;;5089790;28;20101;-73
2022/10/13 11:21:09;;;;;;;14.00;8.27;;;14.30;99.90;;;;;;5007906;28;20415;-73
2022/10/13 11:23:43;;;;;;;17.17;9.23;;;14.30;99.90;;;;;;5047634;28;20048;-73
2022/10/13 11:26:24;;;;;;;16.25;8.98;;;14.30;99.90;;;;;;5047725;28;20173;-73
2022/10/13 11:28:50;;;;;;;16.00;9.07;;;14.30;99.90;;;;;;5051575;28;20032;-73
2022/10/13 11:31:28;;;;;;;14.68;8.48;;;14.40;99.90;;;;;;5067970;28;20044;-73
2022/10/13 11:33:58;;;;;;;12.88;8.57;;;14.40;99.90;;;;;;5067441;28;20049;-73
2022/10/13 11:36:31;;;;;;;14.25;8.02;;;14.40;99.90;;;;;;5075837;28;20145;-73
2022/10/13 11:39:09;;;;;;;16.58;8.10;;;14.40;99.90;;;;;;5078278;28;20514;-73
2022/10/13 11:41:58;;;;;;;20.80;9.02;;;14.40;99.90;;;;;;5069296;28;20044;-73
2022/10/13 11:44:36;;;;;;;15.35;8.52;;;14.50;99.90;;;;;;5067105;28;20036;-73
2022/10/13 11:47:56;;;;;;;15.52;8.43;;;14.50;99.90;;;;;;5066529;28;20063;-73
2022/10/13 11:50:39;;;;;;;13.15;7.85;;;14.50;99.90;;;;;;5006073;28;20535;-73
2022/10/13 11:53:15;;;;;;;12.85;7.13;;;14.50;99.90;;;;;;5048365;28;20386;-73
2022/10/13 11:55:49;;;;;;;15.15;6.57;;;14.50;99.90;;;;;;5050079;28;20045;-72
2022/10/13 11:58:18;;;;;;;12.73;6.25;;;14.50;99.90;;;;;;5087112;28;20039;-73
2022/10/13 12:00:54;;;;;;;12.85;7.03;;;14.50;99.90;;;;;;5088716;28;20089;-73
2022/10/13 12:03:26;;;;;;;10.80;6.97;;;14.50;99.90;;;;;;5077339;28;20123;-73
2022/10/13 12:05:54;;;;;;;10.10;6.53;;;14.50;99.90;;;;;;5066702;28;20235;-73
2022/10/13 12:08:20;;;;;;;13.82;7.05;;;14.50;99.90;;;;;;5068357;28;20406;-73
2022/10/13 12:10:54;;;;;;;12.85;6.72;;;14.50;99.90;;;;;;5049537;28;20097;-73
2022/10/13 12:13:31;;;;;;;11.15;5.90;;;14.50;99.90;;;;;;5066591;28;20044;-73
2022/10/13 12:15:59;;;;;;;;;;;14.50;99.90;;;;;;5046506;28;20056;-73
2022/10/13 12:18:26;;;;;;;14.65;6.22;;;14.50;99.90;;;;;;5071401;28;19963;-73
2022/10/13 12:20:54;;;;;;;12.20;6.43;;;14.50;99.90;;;;;;5066590;28;20067;-73
2022/10/13 12:23:20;;;;;;;11.48;6.25;;;14.50;99.90;;;;;;5066303;28;20048;-73
2022/10/13 12:25:48;;;;;;;13.02;6.38;;;14.50;99.90;;;;;;5066269;28;20037;-73
2022/10/13 12:28:18;;;;;;;11.73;6.55;;;14.50;99.90;;;;;;5049886;28;20501;-73
2022/10/13 12:30:55;;;;;;;10.82;6.43;;;14.50;99.90;;;;;;5068464;28;20038;-73
2022/10/13 12:33:29;;;;;;;12.70;6.50;;;14.50;99.90;;;;;;5068145;28;20570;-73
2022/10/13 12:35:55;;;;;;;12.85;6.38;;;14.50;99.90;;;;;;5066716;28;20076;-73
2022/10/13 12:38:22;;;;;;;9.88;5.60;;;14.50;99.90;;;;;;5066725;28;20347;-73
2022/10/13 12:40:48;;;;;;;11.40;6.35;;;14.50;99.90;;;;;;5066445;28;20055;-73
2022/10/13 12:43:24;;;;;;;13.63;5.93;;;14.50;99.90;;;;;;5080923;28;20052;-73
2022/10/13 12:45:50;;;;;;;11.63;6.25;;;14.50;99.90;;;;;;5049621;28;20322;-73
2022/10/13 12:48:30;;;;;;;10.98;5.82;;;14.50;99.90;;;;;;5072980;28;20110;-73
2022/10/13 12:51:14;;;;;;;10.32;5.85;;;14.50;99.90;;;;;;5087750;28;20489;-73